Time;durP1;ratioP1;P1;durP2;ratioP2;P2;SDS_P1;SDS_P2;PMS_P1;PMS_P2;Temp;Humidity;BMP_temperature;BMP_pressure;BME280_temperature;BME280_humidity;BME280_pressure;Samples;Min_cycle;Max_cycle;Signal;HPM_P1;HPM_P2
2021/11/07 00:12:28;;;;;;;19.02;10.08;;;;;;;7.44;86.10;100803.49;3479505;82;98419;-82
2021/11/07 00:17:29;;;;;;;23.85;10.32;;;;;;;7.42;86.23;100798.36;3543280;81;154772;-82
2021/11/07 00:27:52;;;;;;;19.98;11.10;;;;;;;7.30;86.36;100786.08;3546003;82;98700;-82
2021/11/07 00:38:18;;;;;;;25.45;10.90;;;;;;;7.24;86.61;100781.98;3571584;81;98826;-82
2021/11/07 00:43:28;;;;;;;22.07;10.65;;;;;;;7.19;86.68;100771.28;3590153;81;98531;-81
2021/11/07 00:48:25;;;;;;;18.90;10.15;;;;;;;7.13;86.81;100767.75;3582911;81;98777;-83
2021/11/07 00:53:40;;;;;;;22.00;10.58;;;;;;;7.07;86.98;100753.52;3566575;82;98895;-81
2021/11/07 00:58:41;;;;;;;18.75;10.05;;;;;;;7.04;87.09;100741.87;3545005;82;32898;-81
2021/11/07 01:03:37;;;;;;;18.12;9.60;;;;;;;7.00;87.01;100727.31;3490460;83;98811;-81
2021/11/07 01:08:39;;;;;;;17.70;8.98;;;;;;;6.95;87.07;100720.72;3544964;81;97717;-79
2021/11/07 01:13:40;;;;;;;19.02;9.70;;;;;;;6.92;87.16;100708.30;3583708;80;98723;-81
2021/11/07 01:18:42;;;;;;;18.37;9.68;;;;;;;6.88;87.24;100690.39;3638398;81;98706;-82
2021/11/07 01:23:55;;;;;;;19.98;10.75;;;;;;;6.86;87.23;100688.58;3604313;81;112435;-81
2021/11/07 01:28:55;;;;;;;21.05;10.43;;;;;;;6.84;87.23;100676.38;3581394;81;26853;-82
2021/11/07 01:33:56;;;;;;;22.47;10.90;;;;;;;6.83;87.27;100661.90;3571284;80;98720;-82
2021/11/07 01:39:11;;;;;;;20.70;11.08;;;;;;;6.79;87.37;100656.92;3527885;82;98834;-82
2021/11/07 01:44:10;;;;;;;20.17;10.25;;;;;;;6.78;87.44;100646.31;3564108;82;98888;-81
2021/11/07 01:49:20;;;;;;;20.90;11.53;;;;;;;6.76;87.47;100649.39;3553596;82;119028;-81
2021/11/07 01:54:29;;;;;;;20.77;10.25;;;;;;;6.75;87.61;100637.42;3557425;81;99067;-81
2021/11/07 01:59:29;;;;;;;18.70;9.65;;;;;;;6.72;87.59;100627.97;3588043;82;98147;-81
2021/11/07 02:04:31;;;;;;;18.65;10.35;;;;;;;6.71;87.62;100615.44;3607774;81;98340;-82
2021/11/07 02:09:32;;;;;;;21.77;10.58;;;;;;;6.71;87.55;100609.19;3615909;81;99085;-80
2021/11/07 02:14:34;;;;;;;20.90;11.30;;;;;;;6.71;87.60;100605.87;3557300;81;98623;-81
2021/11/07 02:19:36;;;;;;;22.05;10.82;;;;;;;6.70;87.75;100604.88;3624394;81;99332;-82
2021/11/07 02:24:39;;;;;;;19.05;10.90;;;;;;;6.72;87.74;100583.42;3517603;82;99437;-82
2021/11/07 02:29:41;;;;;;;17.07;9.80;;;;;;;6.71;87.77;100588.09;3491517;84;98473;-81
2021/11/07 02:34:44;;;;;;;22.02;10.58;;;;;;;6.72;87.77;100571.12;3595582;81;98335;-81
2021/11/07 02:39:46;;;;;;;18.42;9.70;;;;;;;6.72;87.56;100554.12;3559634;81;98621;-81
2021/11/07 02:44:48;;;;;;;19.57;10.00;;;;;;;6.73;87.70;100538.52;3553018;81;98499;-81
2021/11/07 02:49:50;;;;;;;17.97;9.47;;;;;;;6.73;87.57;100528.39;3567307;81;98673;-81
2021/11/07 02:54:51;;;;;;;18.23;9.98;;;;;;;6.74;87.49;100535.44;3510909;81;98616;-80
2021/11/07 02:59:58;;;;;;;19.80;10.25;;;;;;;6.75;87.64;100534.85;3517267;82;99094;-81
2021/11/07 03:04:59;;;;;;;16.97;9.45;;;;;;;6.75;87.56;100532.12;3538807;81;98569;-81
2021/11/07 03:10:00;;;;;;;16.30;9.20;;;;;;;6.74;87.51;100523.70;3514181;82;98879;-81
2021/11/07 03:15:04;;;;;;;18.10;9.10;;;;;;;6.72;87.44;100493.17;3540431;82;98725;-81
2021/11/07 03:20:08;;;;;;;18.25;9.50;;;;;;;6.71;87.26;100477.33;3558696;80;97904;-82
2021/11/07 03:25:10;;;;;;;17.27;9.35;;;;;;;6.69;87.32;100485.09;3618055;80;98643;-81
2021/11/07 03:31:28;;;;;;;20.13;10.17;;;;;;;6.66;87.59;100481.68;3718878;78;98739;-82
2021/11/07 03:35:31;;;;;;;16.55;8.65;;;;;;;6.61;88.53;100466.89;3703045;78;99243;-84
2021/11/07 03:40:35;;;;;;;17.52;8.95;;;;;;;6.54;88.86;100446.20;3682053;78;31512;-85
2021/11/07 03:45:36;;;;;;;16.25;8.33;;;;;;;6.45;89.59;100434.64;3721336;78;98538;-84
2021/11/07 03:50:37;;;;;;;17.00;8.55;;;;;;;6.37;89.98;100427.37;3725601;78;98842;-84
2021/11/07 03:55:39;;;;;;;16.20;8.33;;;;;;;6.30;90.46;100438.67;3709935;78;98176;-84
2021/11/07 04:00:40;;;;;;;17.27;8.45;;;;;;;6.24;90.69;100435.41;3729200;78;99112;-85
2021/11/07 04:05:42;;;;;;;17.25;9.25;;;;;;;6.22;91.04;100415.04;3702930;78;99096;-83
2021/11/07 04:10:44;;;;;;;18.37;8.40;;;;;;;6.19;91.15;100411.06;3744465;78;32967;-84
2021/11/07 04:15:46;;;;;;;18.37;9.08;;;;;;;6.18;91.05;100392.28;3705248;78;98503;-84
2021/11/07 04:20:47;;;;;;;17.80;8.70;;;;;;;6.17;91.31;100394.20;3713521;78;98205;-84
2021/11/07 04:25:49;;;;;;;16.12;9.40;;;;;;;6.16;91.28;100389.89;3711411;78;98599;-81
2021/11/07 04:30:50;;;;;;;20.17;9.93;;;;;;;6.14;91.07;100381.25;3724233;78;97902;-84
2021/11/07 04:35:53;;;;;;;17.35;8.50;;;;;;;6.15;91.11;100367.81;3701800;78;98676;-83
2021/11/07 04:40:55;;;;;;;16.75;8.58;;;;;;;6.15;90.94;100345.95;3665760;79;32910;-81
2021/11/07 04:45:57;;;;;;;14.15;7.80;;;;;;;6.15;90.80;100324.09;3676643;78;98758;-83
2021/11/07 04:50:59;;;;;;;15.83;8.33;;;;;;;6.17;90.61;100314.19;3696455;78;97724;-82
2021/11/07 04:56:00;;;;;;;18.65;8.85;;;;;;;6.17;90.58;100297.20;3672906;79;98733;-83
2021/11/07 05:01:02;;;;;;;20.97;8.77;;;;;;;6.19;90.37;100305.06;3663679;79;98739;-82
2021/11/07 05:06:03;;;;;;;18.13;8.90;;;;;;;6.21;90.19;100305.52;3740527;78;98601;-82
2021/11/07 05:11:04;;;;;;;17.30;8.83;;;;;;;6.21;90.26;100304.93;3677291;79;97848;-83
2021/11/07 05:16:06;;;;;;;17.20;8.87;;;;;;;6.22;89.98;100290.12;3657241;79;98287;-83
2021/11/07 05:21:07;;;;;;;16.50;8.63;;;;;;;6.25;89.98;100268.93;3669718;79;97591;-83
2021/11/07 05:26:09;;;;;;;19.70;10.33;;;;;;;6.27;89.63;100259.80;3647865;78;98073;-82
2021/11/07 05:31:10;;;;;;;17.47;8.97;;;;;;;6.31;89.36;100251.69;3612740;80;98024;-83
2021/11/07 05:36:12;;;;;;;16.57;8.65;;;;;;;6.32;89.13;100241.77;3623139;80;99203;-83
2021/11/07 05:41:14;;;;;;;17.37;8.85;;;;;;;6.33;89.09;100244.72;3692684;79;160765;-82
2021/11/07 05:46:15;;;;;;;15.00;7.70;;;;;;;6.36;88.79;100232.29;3620301;80;32973;-82
2021/11/07 05:51:18;;;;;;;19.17;8.57;;;;;;;6.39;88.54;100222.81;3591336;81;98981;-82
2021/11/07 05:56:19;;;;;;;16.42;8.50;;;;;;;6.42;88.45;100227.58;3615886;80;98745;-83
2021/11/07 06:01:21;;;;;;;16.07;7.50;;;;;;;6.45;88.51;100230.18;3592085;80;109827;-81
2021/11/07 06:06:23;;;;;;;19.65;8.75;;;;;;;6.49;88.34;100217.40;3665726;80;98758;-81
2021/11/07 06:11:24;;;;;;;15.10;8.07;;;;;;;6.51;88.19;100203.59;3583175;81;98642;-82
2021/11/07 06:16:26;;;;;;;16.30;8.45;;;;;;;6.55;87.87;100196.84;3675873;80;32885;-84
2021/11/07 06:21:28;;;;;;;17.63;8.47;;;;;;;6.58;87.62;100188.72;3575272;80;98647;-81
2021/11/07 06:26:30;;;;;;;16.77;8.13;;;;;;;6.63;87.46;100173.96;3484440;83;98523;-83
2021/11/07 06:31:31;;;;;;;16.95;8.20;;;;;;;6.67;87.34;100172.91;3494530;83;98774;-82
2021/11/07 06:36:33;;;;;;;14.55;7.55;;;;;;;6.71;86.82;100171.63;3543955;81;98628;-84
2021/11/07 06:41:34;;;;;;;14.37;7.37;;;;;;;6.77;86.75;100156.52;3565694;82;98389;-82
2021/11/07 06:46:36;;;;;;;16.77;8.18;;;;;;;6.82;86.02;100155.64;3512924;83;33569;-84
2021/11/07 06:51:38;;;;;;;17.40;8.50;;;;;;;6.89;85.68;100141.33;3531190;82;98629;-83
2021/11/07 06:56:41;;;;;;;14.95;8.38;;;;;;;6.94;85.61;100138.31;3547964;83;156596;-81
2021/11/07 07:01:43;;;;;;;14.27;8.03;;;;;;;6.99;85.27;100139.41;3556210;82;98826;-82
2021/11/07 07:06:44;;;;;;;16.37;8.10;;;;;;;7.03;85.57;100128.73;3569420;82;98785;-83
2021/11/07 07:11:49;;;;;;;15.72;7.92;;;;;;;7.08;85.33;100109.86;3551271;81;98459;-81
2021/11/07 07:17:15;;;;;;;14.60;7.65;;;;;;;7.12;85.04;100120.30;3595894;81;32874;-83
2021/11/07 07:37:23;;;;;;;16.47;8.80;;;;;;;7.38;84.08;100104.00;3528787;82;101940;-82
2021/11/07 07:42:25;;;;;;;14.47;7.70;;;;;;;7.42;84.34;100087.07;3557057;81;99250;-81
2021/11/07 07:47:27;;;;;;;14.20;7.72;;;;;;;7.42;84.60;100096.05;3604095;80;98670;-82
2021/11/07 07:52:29;;;;;;;16.33;8.13;;;;;;;7.42;84.83;100080.22;3631624;81;98254;-82
2021/11/07 07:57:30;;;;;;;18.73;8.93;;;;;;;7.40;84.59;100073.73;3542478;81;111057;-81
2021/11/07 08:02:32;;;;;;;17.40;8.45;;;;;;;7.40;84.67;100071.56;3636789;80;98591;-82
2021/11/07 08:07:33;;;;;;;14.63;7.65;;;;;;;7.39;84.78;100066.69;3644735;80;98784;-83
2021/11/07 08:12:37;;;;;;;16.63;8.27;;;;;;;7.37;84.79;100067.61;3551767;82;99417;-81
2021/11/07 08:17:39;;;;;;;14.83;8.18;;;;;;;7.35;84.78;100064.45;3605041;81;98823;-81
2021/11/07 08:22:42;;;;;;;14.95;8.20;;;;;;;7.36;84.88;100063.30;3610598;80;98348;-81
2021/11/07 08:27:45;;;;;;;15.10;7.95;;;;;;;7.38;84.72;100043.77;3638849;80;98704;-82
2021/11/07 08:32:46;;;;;;;15.75;8.28;;;;;;;7.43;84.08;100047.02;3598401;80;137550;-82
2021/11/07 08:37:56;;;;;;;14.60;6.77;;;;;;;7.49;83.58;100045.55;3548951;82;98930;-81
2021/11/07 08:43:04;;;;;;;16.02;8.78;;;;;;;7.56;83.58;100033.91;3578760;81;98594;-81
2021/11/07 09:03:51;;;;;;;14.70;8.15;;;;;;;7.82;83.57;100040.23;3581772;80;98426;-81
2021/11/07 09:08:51;;;;;;;17.65;7.90;;;;;;;7.87;83.42;100037.18;3593020;81;98663;-82
2021/11/07 09:13:52;;;;;;;15.25;7.25;;;;;;;7.90;82.99;100039.16;3610466;81;98744;-82
2021/11/07 09:18:57;;;;;;;16.70;8.97;;;;;;;7.91;83.54;100041.34;3613983;81;98585;-83
2021/11/07 09:24:01;;;;;;;16.55;7.37;;;;;;;7.84;84.19;100037.91;3602952;81;98365;-81
2021/11/07 09:29:04;;;;;;;13.60;7.25;;;;;;;7.75;84.54;100027.77;3591326;81;32939;-81
2021/11/07 09:39:18;;;;;;;14.55;7.55;;;;;;;7.61;86.22;100023.45;3571804;82;98568;-81
2021/11/07 09:44:16;;;;;;;19.07;7.78;;;;;;;7.51;87.68;100010.94;3574672;82;98692;-82
2021/11/07 09:49:23;;;;;;;17.90;8.40;;;;;;;7.42;88.04;100004.34;3568730;82;113639;-82
2021/11/07 09:54:27;;;;;;;16.85;9.00;;;;;;;7.35;88.60;99997.95;3491658;82;98932;-82
2021/11/07 09:59:30;;;;;;;24.05;9.93;;;;;;;7.34;89.61;99999.11;3586983;80;32876;-82
2021/11/07 10:04:36;;;;;;;18.03;10.27;;;;;;;7.34;89.59;99991.70;3511856;83;101403;-82
2021/11/07 10:09:40;;;;;;;14.83;8.28;;;;;;;7.36;89.75;99981.17;3589398;82;99110;-82
2021/11/07 10:14:51;;;;;;;15.05;8.38;;;;;;;7.38;90.07;99972.03;3511785;82;98512;-82
2021/11/07 10:20:27;;;;;;;16.67;8.40;;;;;;;7.43;90.21;99968.19;3528410;82;98580;-82
2021/11/07 10:25:44;;;;;;;19.52;9.10;;;;;;;7.49;90.38;99963.41;3502810;82;134168;-82
2021/11/07 10:30:48;;;;;;;17.32;9.15;;;;;;;7.56;90.39;99944.91;3576105;81;98749;-82
2021/11/07 10:52:20;;;;;;;18.70;8.90;;;;;;;7.87;90.21;99944.03;3590696;80;98344;-82
2021/11/07 10:57:31;;;;;;;20.17;9.68;;;;;;;7.90;90.09;99943.88;3593040;80;98807;-82
2021/11/07 11:02:47;;;;;;;16.30;8.70;;;;;;;7.97;89.91;99942.59;3589812;81;98500;-82
2021/11/07 11:08:03;;;;;;;16.50;8.63;;;;;;;8.02;90.00;99934.81;3599318;81;97744;-82
2021/11/07 11:13:24;;;;;;;16.85;8.48;;;;;;;8.07;89.88;99929.02;3598032;80;98618;-82
2021/11/07 11:28:59;;;;;;;15.93;8.78;;;;;;;8.30;90.14;99889.97;3590945;80;98242;-82
2021/11/07 11:33:53;;;;;;;;;;;;;;;8.45;90.26;99879.97;3636719;80;137378;-82
2021/11/07 11:39:08;;;;;;;12.37;6.28;;;;;;;8.60;90.25;99876.98;3642319;79;132202;-82
2021/11/07 11:44:00;;;;;;;14.13;7.58;;;;;;;8.76;90.25;99878.91;3641837;80;98615;-82
2021/11/07 11:59:58;;;;;;;13.45;6.12;;;;;;;9.03;89.34;99869.92;3576770;82;98499;-83
2021/11/07 12:05:22;;;;;;;11.90;6.08;;;;;;;9.06;89.06;99863.69;3574794;81;97854;-83
2021/11/07 12:10:28;;;;;;;13.30;5.87;;;;;;;9.07;88.85;99866.06;3583650;82;98448;-81
2021/11/07 12:15:49;;;;;;;13.45;6.30;;;;;;;9.10;89.07;99858.42;3575008;80;114677;-81
2021/11/07 12:21:02;;;;;;;12.68;7.03;;;;;;;9.09;88.90;99854.10;3586769;81;98700;-83
2021/11/07 12:26:20;;;;;;;14.07;6.60;;;;;;;9.14;88.79;99851.58;3613955;80;97978;-82
2021/11/07 12:31:22;;;;;;;13.93;6.45;;;;;;;9.16;88.77;99832.19;3641311;79;98497;-81
2021/11/07 12:36:35;;;;;;;15.90;7.25;;;;;;;9.24;88.39;99834.41;3625548;79;98838;-82
2021/11/07 12:41:31;;;;;;;15.38;7.17;;;;;;;9.28;88.40;99835.22;3599439;80;98158;-82
2021/11/07 12:46:54;;;;;;;14.63;7.40;;;;;;;9.33;88.21;99833.48;3653243;79;98314;-82
2021/11/07 12:52:13;;;;;;;14.33;6.67;;;;;;;9.39;88.26;99832.72;3643000;80;98356;-82
2021/11/07 12:57:17;;;;;;;17.10;7.40;;;;;;;9.42;88.00;99826.48;3618237;79;144078;-82
2021/11/07 13:02:32;;;;;;;15.08;7.95;;;;;;;9.45;87.83;99826.30;3638967;80;98689;-82
2021/11/07 13:07:45;;;;;;;16.17;7.53;;;;;;;9.42;87.76;99827.86;3571214;82;125275;-82
2021/11/07 13:12:49;;;;;;;12.80;6.20;;;;;;;9.43;87.73;99826.67;3604971;81;98681;-81
2021/11/07 13:28:46;;;;;;;13.32;6.05;;;;;;;9.53;87.05;99836.14;3638833;80;98014;-82
2021/11/07 13:33:46;;;;;;;14.53;5.58;;;;;;;9.51;87.04;99826.94;3640984;80;114575;-83
2021/11/07 13:38:58;;;;;;;12.63;5.80;;;;;;;9.51;86.92;99820.07;3610151;81;98689;-83
2021/11/07 13:44:04;;;;;;;12.90;6.00;;;;;;;9.53;87.05;99820.46;3602351;80;98405;-83
2021/11/07 13:49:07;;;;;;;13.32;6.55;;;;;;;9.53;86.96;99819.66;3610126;81;98465;-83
2021/11/07 13:54:08;;;;;;;12.63;6.20;;;;;;;9.50;86.94;99813.01;3596003;80;98328;-83
2021/11/07 13:59:09;;;;;;;11.35;5.30;;;;;;;9.49;86.82;99821.02;3613539;81;140098;-84
2021/11/07 14:04:11;;;;;;;14.13;5.80;;;;;;;9.47;86.69;99820.63;3576401;81;129607;-82
2021/11/07 14:09:12;;;;;;;11.50;5.93;;;;;;;9.46;87.03;99823.75;3591381;80;98556;-82
2021/11/07 14:14:16;;;;;;;12.78;6.00;;;;;;;9.42;87.02;99818.81;3605096;80;98508;-82
2021/11/07 14:19:17;;;;;;;11.78;5.53;;;;;;;9.34;87.19;99814.47;3605607;80;98577;-83
2021/11/07 14:40:09;;;;;;;9.65;4.95;;;;;;;9.17;87.62;99809.66;3628308;80;97555;-82
2021/11/07 14:45:34;;;;;;;16.17;6.55;;;;;;;9.13;87.63;99806.89;3588054;81;108950;-82
2021/11/07 14:50:43;;;;;;;9.98;4.78;;;;;;;9.11;87.42;99800.97;3578636;81;98737;-83
2021/11/07 14:55:44;;;;;;;10.10;4.47;;;;;;;9.05;87.37;99802.50;3562167;82;98271;-83
2021/11/07 15:00:48;;;;;;;;;;;;;;;9.05;87.46;99794.87;3588660;81;147807;-83
2021/11/07 15:06:03;;;;;;;12.10;5.03;;;;;;;9.03;87.48;99805.42;3574262;82;84141;-82
2021/11/07 15:21:56;;;;;;;15.45;5.55;;;;;;;8.91;87.66;99820.83;3603709;80;138450;-84
2021/11/07 15:26:57;;;;;;;13.65;4.70;;;;;;;8.87;87.65;99822.17;3585218;81;98611;-83
2021/11/07 15:32:05;;;;;;;12.58;5.12;;;;;;;8.85;87.66;99822.34;3577754;80;98449;-82
2021/11/07 15:37:10;;;;;;;16.37;6.78;;;;;;;8.83;87.76;99826.84;3598771;81;98484;-82
2021/11/07 15:42:21;;;;;;;12.88;5.10;;;;;;;8.82;87.75;99824.47;3560320;82;98474;-83
2021/11/07 15:47:27;;;;;;;13.38;5.12;;;;;;;8.80;87.66;99827.61;3566508;83;32806;-83
2021/11/07 15:52:39;;;;;;;11.12;4.90;;;;;;;8.78;87.66;99825.81;3556212;79;98400;-84
2021/11/07 16:03:15;;;;;;;10.55;4.35;;;;;;;8.70;87.78;99826.93;3564231;82;98730;-86
2021/11/07 16:13:31;;;;;;;;;;;;;;;8.56;88.26;99826.79;3629233;78;98679;-86
2021/11/07 16:18:26;;;;;;;10.72;4.58;;;;;;;8.53;88.74;99837.73;3631794;80;84576;-85
2021/11/07 16:23:28;;;;;;;9.98;5.00;;;;;;;8.48;88.88;99842.98;3591817;78;98192;-85
2021/11/07 16:28:30;;;;;;;10.55;4.80;;;;;;;8.44;89.71;99843.52;3590356;80;97567;-86
2021/11/07 16:33:38;;;;;;;11.05;5.17;;;;;;;8.40;89.95;99854.27;3613921;79;98262;-87
2021/11/07 16:43:44;;;;;;;10.95;5.25;;;;;;;8.33;91.20;99853.59;3612018;80;98034;-88
2021/11/07 16:48:45;;;;;;;17.55;7.20;;;;;;;8.29;92.34;99869.20;3612963;80;98516;-91
2021/11/07 16:53:54;;;;;;;10.08;4.00;;;;;;;8.23;92.70;99910.45;3617953;79;98610;-91
2021/11/07 17:04:17;;;;;;;12.28;3.10;;;;;;;7.93;91.88;99893.23;3479131;81;98946;-90
2021/11/07 17:14:23;;;;;;;8.33;2.35;;;;;;;7.75;92.15;99894.16;3609924;78;98253;-90
2021/11/07 17:19:31;;;;;;;8.65;2.30;;;;;;;7.68;92.30;99894.83;3611717;80;98364;-92
2021/11/07 17:24:36;;;;;;;8.33;2.35;;;;;;;7.62;92.54;99896.31;3572676;79;97948;-90
2021/11/07 17:29:38;;;;;;;7.37;2.27;;;;;;;7.59;92.58;99909.36;3544806;82;33256;-89
2021/11/07 17:34:41;;;;;;;11.90;2.67;;;;;;;7.54;92.45;99914.38;3581248;81;98219;-87
2021/11/07 17:50:07;;;;;;;11.48;4.12;;;;;;;7.36;93.14;99927.02;3605513;80;98536;-88
2021/11/07 17:55:06;;;;;;;9.50;3.85;;;;;;;7.29;93.29;99932.36;3597042;81;98354;-85
2021/11/07 18:00:13;;;;;;;10.58;2.60;;;;;;;7.23;93.54;99930.53;3595186;80;148072;-87
2021/11/07 18:05:20;;;;;;;10.63;3.02;;;;;;;7.17;93.74;99936.09;3590711;80;133721;-89
2021/11/07 18:10:20;;;;;;;12.57;2.50;;;;;;;7.09;93.66;99946.70;3557487;81;98554;-88
2021/11/07 18:15:24;;;;;;;7.92;2.50;;;;;;;7.01;93.81;99946.38;3546109;81;98114;-90
2021/11/07 18:20:25;;;;;;;11.28;3.22;;;;;;;6.94;93.88;99945.46;3571867;80;125785;-88
2021/11/07 18:25:38;;;;;;;9.40;2.98;;;;;;;6.87;94.12;99946.11;3606316;80;98586;-86
2021/11/07 18:30:32;;;;;;;10.95;3.35;;;;;;;6.77;94.27;99943.97;3624935;80;98593;-87
2021/11/07 18:35:33;;;;;;;9.98;3.37;;;;;;;6.71;94.39;99934.48;3599954;80;97811;-89
2021/11/07 18:40:35;;;;;;;11.25;3.20;;;;;;;6.65;94.59;99940.64;3660762;79;98072;-89
2021/11/07 18:45:36;;;;;;;13.98;2.50;;;;;;;6.61;94.76;99950.12;3607501;80;98295;-87
2021/11/07 18:50:38;;;;;;;9.90;2.50;;;;;;;6.56;95.08;99950.44;3589172;79;98418;-87
2021/11/07 18:55:40;;;;;;;13.40;3.00;;;;;;;6.50;95.48;99958.69;3553637;81;98315;-87
2021/11/07 19:00:46;;;;;;;10.55;2.87;;;;;;;6.50;95.74;99969.63;3545816;82;98436;-93
2021/11/07 19:05:46;;;;;;;6.90;2.50;;;;;;;6.52;96.89;99959.70;3583214;81;98399;-93
2021/11/07 19:10:52;;;;;;;14.68;4.90;;;;;;;6.52;96.78;99966.53;3597274;81;33304;-92
2021/11/07 19:15:53;;;;;;;12.80;3.80;;;;;;;6.56;97.01;99970.14;3609464;81;98386;-93
2021/11/07 19:20:55;;;;;;;12.47;3.90;;;;;;;6.56;97.06;99970.94;3615796;81;98522;-92
2021/11/07 19:25:56;;;;;;;12.05;4.30;;;;;;;6.56;97.20;99967.41;3562092;79;153939;-91
2021/11/07 19:30:59;;;;;;;11.70;3.75;;;;;;;6.57;97.23;99963.52;3570313;80;97936;-90
2021/11/07 19:36:01;;;;;;;14.30;3.92;;;;;;;6.57;97.47;99969.78;3599309;80;98536;-86
2021/11/07 19:41:03;;;;;;;11.20;4.30;;;;;;;6.61;98.10;99964.38;3599925;80;70046;-86
2021/11/07 19:46:10;;;;;;;11.07;3.37;;;;;;;6.64;98.34;99973.20;3537833;81;98413;-86
2021/11/07 19:51:10;;;;;;;9.63;3.50;;;;;;;6.67;98.59;99971.94;3594177;81;97486;-86
2021/11/07 19:56:11;;;;;;;12.53;4.97;;;;;;;6.71;98.89;99981.57;3641817;79;98204;-87
2021/11/07 20:06:19;;;;;;;10.53;3.37;;;;;;;6.80;99.14;99982.92;3654048;79;98486;-86
2021/11/07 20:11:18;;;;;;;19.95;6.47;;;;;;;6.83;99.08;99986.88;3598106;80;98421;-86
2021/11/07 20:16:19;;;;;;;14.20;4.30;;;;;;;6.86;99.21;99986.13;3581684;81;98687;-86
2021/11/07 20:21:21;;;;;;;15.70;4.70;;;;;;;6.89;99.33;99986.22;3551315;81;98304;-86
2021/11/07 20:26:23;;;;;;;17.50;4.80;;;;;;;6.93;99.41;99990.39;3603935;80;98462;-86
2021/11/07 20:31:25;;;;;;;13.97;4.60;;;;;;;6.97;99.33;99998.06;3540334;82;98493;-86
2021/11/07 20:36:29;;;;;;;11.35;4.00;;;;;;;6.99;99.27;99994.41;3540268;82;98447;-85
2021/11/07 20:41:30;;;;;;;14.28;5.05;;;;;;;7.02;99.21;99997.20;3539945;82;98107;-84
2021/11/07 20:51:57;;;;;;;14.20;5.53;;;;;;;7.09;99.22;100009.63;3651414;79;142121;-86
2021/11/07 20:57:10;;;;;;;14.63;4.35;;;;;;;7.12;99.05;100001.27;3657341;79;99031;-85
2021/11/07 21:02:15;;;;;;;17.02;5.60;;;;;;;7.13;99.03;100004.22;3642053;79;98651;-85
2021/11/07 21:07:37;;;;;;;11.63;4.70;;;;;;;7.14;99.01;100003.86;3609078;80;97934;-86
2021/11/07 21:28:01;;;;;;;10.38;4.10;;;;;;;7.14;98.66;100012.66;3645772;79;97613;-85
2021/11/07 21:33:03;;;;;;;12.40;4.50;;;;;;;7.15;98.63;100015.02;3628885;80;98698;-85
2021/11/07 21:38:21;;;;;;;14.70;4.30;;;;;;;7.17;98.64;100022.30;3648919;80;97892;-85
2021/11/07 21:43:19;;;;;;;10.72;3.42;;;;;;;7.16;98.45;100030.30;3635888;80;98707;-85
2021/11/07 21:48:21;;;;;;;8.48;3.35;;;;;;;7.15;98.29;100041.01;3602856;81;99110;-85
2021/11/07 21:53:23;;;;;;;13.40;3.95;;;;;;;7.12;98.24;100032.74;3602852;81;98509;-85
2021/11/07 21:58:24;;;;;;;16.93;4.27;;;;;;;7.08;98.04;100042.25;3590782;81;97743;-84
2021/11/07 22:03:25;;;;;;;10.33;3.23;;;;;;;7.08;98.04;100042.25;3587283;81;156532;-85
2021/11/07 22:08:28;;;;;;;10.87;3.40;;;;;;;7.08;98.37;100040.89;3591284;81;98048;-83
2021/11/07 22:13:30;;;;;;;13.60;3.58;;;;;;;7.06;98.50;100042.41;3581955;81;98596;-84
2021/11/07 22:18:42;;;;;;;14.85;3.87;;;;;;;7.05;98.57;100050.41;3590226;81;99075;-83
2021/11/07 22:23:45;;;;;;;15.18;4.42;;;;;;;7.06;98.82;100047.88;3697636;78;98805;-85
2021/11/07 22:28:50;;;;;;;11.30;4.12;;;;;;;7.06;98.65;100041.03;3677836;79;97727;-86
2021/11/07 22:33:44;;;;;;;15.23;4.90;;;;;;;7.07;98.61;100043.41;3655769;79;98515;-85
2021/11/07 22:38:46;;;;;;;10.38;4.35;;;;;;;7.10;98.59;100059.09;3693263;79;98660;-85
2021/11/07 22:43:48;;;;;;;9.08;3.40;;;;;;;7.12;98.62;100054.63;3635511;79;98598;-85
2021/11/07 22:48:52;;;;;;;12.78;4.05;;;;;;;7.14;98.63;100058.59;3607317;81;97837;-86
2021/11/07 22:54:15;;;;;;;9.23;3.95;;;;;;;7.15;98.70;100065.64;3590536;80;98747;-85
2021/11/07 23:14:32;;;;;;;12.82;4.80;;;;;;;7.26;98.62;100087.75;3594152;80;107625;-85
2021/11/07 23:19:44;;;;;;;16.57;3.98;;;;;;;7.27;98.56;100086.02;3575498;81;114810;-84
2021/11/07 23:24:47;;;;;;;11.22;3.90;;;;;;;7.30;98.53;100079.03;3561467;80;139219;-84
2021/11/07 23:29:49;;;;;;;13.25;3.98;;;;;;;7.31;98.54;100080.61;3688675;79;97957;-85
2021/11/07 23:34:51;;;;;;;14.90;4.92;;;;;;;7.32;98.41;100080.82;3701557;78;98216;-84
2021/11/07 23:39:55;;;;;;;10.98;4.20;;;;;;;7.34;98.32;100083.41;3686361;79;97767;-85
2021/11/07 23:45:01;;;;;;;10.72;3.60;;;;;;;7.35;98.17;100086.92;3674584;79;98640;-83
2021/11/07 23:50:12;;;;;;;9.65;3.05;;;;;;;7.36;98.07;100077.58;3686558;79;98765;-85
2021/11/07 23:55:05;;;;;;;9.68;3.85;;;;;;;7.37;97.90;100082.66;3646171;79;98449;-84
